sensor_id;sensor_type;location;lat;lon;timestamp;P1;durP1;ratioP1;P2;durP2;ratioP2
18360;SDS011;9308;48.550;9.108;2022-11-15T00:00:46;6.33;;;5.83;;
18360;SDS011;9308;48.550;9.108;2022-11-15T00:03:13;6.83;;;6.10;;
18360;SDS011;9308;48.550;9.108;2022-11-15T00:05:40;6.73;;;6.13;;
18360;SDS011;9308;48.550;9.108;2022-11-15T00:08:06;6.67;;;6.07;;
18360;SDS011;9308;48.550;9.108;2022-11-15T00:10:31;6.60;;;6.00;;
18360;SDS011;9308;48.550;9.108;2022-11-15T00:12:57;7.00;;;6.40;;
18360;SDS011;9308;48.550;9.108;2022-11-15T00:15:22;7.30;;;6.60;;
18360;SDS011;9308;48.550;9.108;2022-11-15T00:17:48;8.53;;;7.07;;
18360;SDS011;9308;48.550;9.108;2022-11-15T00:20:14;7.53;;;6.80;;
18360;SDS011;9308;48.550;9.108;2022-11-15T00:22:40;6.77;;;6.17;;
18360;SDS011;9308;48.550;9.108;2022-11-15T00:25:05;6.53;;;5.90;;
18360;SDS011;9308;48.550;9.108;2022-11-15T00:27:31;7.10;;;6.50;;
18360;SDS011;9308;48.550;9.108;2022-11-15T00:29:56;7.33;;;6.73;;
18360;SDS011;9308;48.550;9.108;2022-11-15T00:32:22;7.90;;;6.90;;
18360;SDS011;9308;48.550;9.108;2022-11-15T00:34:47;6.93;;;6.33;;
18360;SDS011;9308;48.550;9.108;2022-11-15T00:37:13;7.67;;;6.97;;
18360;SDS011;9308;48.550;9.108;2022-11-15T00:39:38;7.47;;;6.97;;
18360;SDS011;9308;48.550;9.108;2022-11-15T00:42:03;8.00;;;7.40;;
18360;SDS011;9308;48.550;9.108;2022-11-15T00:44:29;6.87;;;6.40;;
18360;SDS011;9308;48.550;9.108;2022-11-15T00:46:54;11.10;;;7.50;;
18360;SDS011;9308;48.550;9.108;2022-11-15T00:49:20;7.37;;;6.87;;
18360;SDS011;9308;48.550;9.108;2022-11-15T00:51:45;6.63;;;6.13;;
18360;SDS011;9308;48.550;9.108;2022-11-15T00:54:10;6.50;;;5.90;;
18360;SDS011;9308;48.550;9.108;2022-11-15T00:56:36;7.10;;;6.50;;
18360;SDS011;9308;48.550;9.108;2022-11-15T00:59:01;8.00;;;7.30;;
18360;SDS011;9308;48.550;9.108;2022-11-15T01:01:27;7.27;;;6.57;;
18360;SDS011;9308;48.550;9.108;2022-11-15T01:03:53;6.17;;;5.70;;
18360;SDS011;9308;48.550;9.108;2022-11-15T01:06:18;6.73;;;6.20;;
18360;SDS011;9308;48.550;9.108;2022-11-15T01:08:43;7.40;;;6.80;;
18360;SDS011;9308;48.550;9.108;2022-11-15T01:11:10;7.63;;;7.03;;
18360;SDS011;9308;48.550;9.108;2022-11-15T01:13:37;7.87;;;7.10;;
18360;SDS011;9308;48.550;9.108;2022-11-15T01:16:07;7.80;;;7.20;;
18360;SDS011;9308;48.550;9.108;2022-11-15T01:18:33;7.33;;;6.60;;
18360;SDS011;9308;48.550;9.108;2022-11-15T01:20:58;7.00;;;6.50;;
18360;SDS011;9308;48.550;9.108;2022-11-15T01:23:24;7.50;;;6.87;;
18360;SDS011;9308;48.550;9.108;2022-11-15T01:25:49;6.40;;;5.90;;
18360;SDS011;9308;48.550;9.108;2022-11-15T01:28:14;6.73;;;6.00;;
18360;SDS011;9308;48.550;9.108;2022-11-15T01:30:40;6.43;;;5.83;;
18360;SDS011;9308;48.550;9.108;2022-11-15T01:33:05;6.23;;;5.60;;
18360;SDS011;9308;48.550;9.108;2022-11-15T01:35:31;6.40;;;5.90;;
18360;SDS011;9308;48.550;9.108;2022-11-15T01:37:56;5.90;;;5.50;;
18360;SDS011;9308;48.550;9.108;2022-11-15T01:40:22;6.50;;;5.90;;
18360;SDS011;9308;48.550;9.108;2022-11-15T01:42:47;6.23;;;5.73;;
18360;SDS011;9308;48.550;9.108;2022-11-15T01:45:16;5.90;;;5.30;;
18360;SDS011;9308;48.550;9.108;2022-11-15T01:47:43;5.90;;;5.40;;
18360;SDS011;9308;48.550;9.108;2022-11-15T01:50:14;5.60;;;5.10;;
18360;SDS011;9308;48.550;9.108;2022-11-15T01:52:43;5.97;;;5.47;;
18360;SDS011;9308;48.550;9.108;2022-11-15T01:55:16;6.33;;;5.83;;
18360;SDS011;9308;48.550;9.108;2022-11-15T01:57:45;6.63;;;5.93;;
18360;SDS011;9308;48.550;9.108;2022-11-15T02:00:15;6.23;;;5.53;;
18360;SDS011;9308;48.550;9.108;2022-11-15T02:02:41;6.70;;;5.23;;
18360;SDS011;9308;48.550;9.108;2022-11-15T02:05:07;6.50;;;5.90;;
18360;SDS011;9308;48.550;9.108;2022-11-15T02:07:34;7.37;;;5.90;;
18360;SDS011;9308;48.550;9.108;2022-11-15T02:10:11;6.93;;;6.23;;
18360;SDS011;9308;48.550;9.108;2022-11-15T02:12:43;6.10;;;5.60;;
18360;SDS011;9308;48.550;9.108;2022-11-15T02:15:09;6.13;;;5.60;;
18360;SDS011;9308;48.550;9.108;2022-11-15T02:24:02;6.33;;;5.87;;
18360;SDS011;9308;48.550;9.108;2022-11-15T02:29:14;5.63;;;5.13;;
18360;SDS011;9308;48.550;9.108;2022-11-15T02:34:43;6.93;;;5.53;;
18360;SDS011;9308;48.550;9.108;2022-11-15T02:39:49;5.60;;;5.20;;
18360;SDS011;9308;48.550;9.108;2022-11-15T02:42:25;5.43;;;5.03;;
18360;SDS011;9308;48.550;9.108;2022-11-15T02:45:12;5.30;;;4.90;;
18360;SDS011;9308;48.550;9.108;2022-11-15T02:47:43;6.57;;;4.90;;
18360;SDS011;9308;48.550;9.108;2022-11-15T02:50:12;5.60;;;5.10;;
18360;SDS011;9308;48.550;9.108;2022-11-15T02:52:41;9.30;;;5.23;;
18360;SDS011;9308;48.550;9.108;2022-11-15T02:55:29;5.53;;;5.00;;
18360;SDS011;9308;48.550;9.108;2022-11-15T02:58:19;5.27;;;4.77;;
18360;SDS011;9308;48.550;9.108;2022-11-15T03:01:01;5.97;;;5.50;;
18360;SDS011;9308;48.550;9.108;2022-11-15T03:03:34;5.03;;;4.63;;
18360;SDS011;9308;48.550;9.108;2022-11-15T03:08:54;6.13;;;5.53;;
18360;SDS011;9308;48.550;9.108;2022-11-15T03:11:27;6.40;;;5.00;;
18360;SDS011;9308;48.550;9.108;2022-11-15T03:14:02;5.63;;;5.03;;
18360;SDS011;9308;48.550;9.108;2022-11-15T03:19:32;4.57;;;4.27;;
18360;SDS011;9308;48.550;9.108;2022-11-15T03:22:04;7.20;;;4.60;;
18360;SDS011;9308;48.550;9.108;2022-11-15T03:24:33;5.30;;;4.90;;
18360;SDS011;9308;48.550;9.108;2022-11-15T03:27:01;5.70;;;4.53;;
18360;SDS011;9308;48.550;9.108;2022-11-15T03:29:35;6.03;;;5.53;;
18360;SDS011;9308;48.550;9.108;2022-11-15T03:32:06;4.90;;;4.50;;
18360;SDS011;9308;48.550;9.108;2022-11-15T03:34:49;5.37;;;4.83;;
18360;SDS011;9308;48.550;9.108;2022-11-15T03:37:20;11.13;;;4.87;;
18360;SDS011;9308;48.550;9.108;2022-11-15T03:39:47;4.70;;;4.30;;
18360;SDS011;9308;48.550;9.108;2022-11-15T03:42:24;5.70;;;5.07;;
18360;SDS011;9308;48.550;9.108;2022-11-15T03:45:15;5.43;;;4.93;;
18360;SDS011;9308;48.550;9.108;2022-11-15T03:47:42;6.30;;;5.70;;
18360;SDS011;9308;48.550;9.108;2022-11-15T03:50:13;6.03;;;5.53;;
18360;SDS011;9308;48.550;9.108;2022-11-15T03:52:41;6.13;;;5.63;;
18360;SDS011;9308;48.550;9.108;2022-11-15T03:55:11;5.40;;;4.90;;
18360;SDS011;9308;48.550;9.108;2022-11-15T03:57:40;5.23;;;4.83;;
18360;SDS011;9308;48.550;9.108;2022-11-15T04:00:06;4.90;;;4.47;;
18360;SDS011;9308;48.550;9.108;2022-11-15T04:02:32;4.47;;;4.17;;
18360;SDS011;9308;48.550;9.108;2022-11-15T04:04:58;5.87;;;4.40;;
18360;SDS011;9308;48.550;9.108;2022-11-15T04:07:23;5.10;;;4.10;;
18360;SDS011;9308;48.550;9.108;2022-11-15T04:09:49;4.93;;;4.60;;
18360;SDS011;9308;48.550;9.108;2022-11-15T04:12:34;5.03;;;4.63;;
18360;SDS011;9308;48.550;9.108;2022-11-15T04:15:06;5.80;;;5.37;;
18360;SDS011;9308;48.550;9.108;2022-11-15T04:17:34;4.90;;;4.50;;
18360;SDS011;9308;48.550;9.108;2022-11-15T04:20:17;8.23;;;4.43;;
18360;SDS011;9308;48.550;9.108;2022-11-15T04:23:07;5.30;;;4.90;;
18360;SDS011;9308;48.550;9.108;2022-11-15T04:25:58;4.60;;;4.30;;
18360;SDS011;9308;48.550;9.108;2022-11-15T04:28:26;4.70;;;4.30;;
18360;SDS011;9308;48.550;9.108;2022-11-15T04:30:51;7.73;;;5.30;;
18360;SDS011;9308;48.550;9.108;2022-11-15T04:33:17;5.80;;;5.20;;
18360;SDS011;9308;48.550;9.108;2022-11-15T04:35:43;6.00;;;5.50;;
18360;SDS011;9308;48.550;9.108;2022-11-15T04:38:09;5.03;;;4.67;;
18360;SDS011;9308;48.550;9.108;2022-11-15T04:40:36;6.13;;;5.63;;
18360;SDS011;9308;48.550;9.108;2022-11-15T04:43:02;5.23;;;4.83;;
18360;SDS011;9308;48.550;9.108;2022-11-15T04:45:29;5.30;;;4.80;;
18360;SDS011;9308;48.550;9.108;2022-11-15T04:47:55;5.60;;;5.07;;
18360;SDS011;9308;48.550;9.108;2022-11-15T04:50:20;5.10;;;4.70;;
18360;SDS011;9308;48.550;9.108;2022-11-15T04:52:53;5.00;;;4.60;;
18360;SDS011;9308;48.550;9.108;2022-11-15T04:55:19;5.33;;;4.90;;
18360;SDS011;9308;48.550;9.108;2022-11-15T04:57:45;11.77;;;10.77;;
18360;SDS011;9308;48.550;9.108;2022-11-15T05:00:12;14.77;;;13.60;;
18360;SDS011;9308;48.550;9.108;2022-11-15T05:02:38;11.37;;;10.47;;
18360;SDS011;9308;48.550;9.108;2022-11-15T05:05:23;10.00;;;9.30;;
18360;SDS011;9308;48.550;9.108;2022-11-15T05:07:49;10.47;;;9.67;;
18360;SDS011;9308;48.550;9.108;2022-11-15T05:10:14;9.03;;;8.20;;
18360;SDS011;9308;48.550;9.108;2022-11-15T05:12:40;8.30;;;7.60;;
18360;SDS011;9308;48.550;9.108;2022-11-15T05:15:05;6.87;;;6.20;;
18360;SDS011;9308;48.550;9.108;2022-11-15T05:17:31;6.50;;;5.90;;
18360;SDS011;9308;48.550;9.108;2022-11-15T05:19:56;7.27;;;6.57;;
18360;SDS011;9308;48.550;9.108;2022-11-15T05:22:22;6.30;;;5.80;;
18360;SDS011;9308;48.550;9.108;2022-11-15T05:24:47;6.30;;;5.80;;
18360;SDS011;9308;48.550;9.108;2022-11-15T05:27:13;6.07;;;5.47;;
18360;SDS011;9308;48.550;9.108;2022-11-15T05:29:38;6.67;;;6.03;;
18360;SDS011;9308;48.550;9.108;2022-11-15T05:32:07;6.63;;;5.90;;
18360;SDS011;9308;48.550;9.108;2022-11-15T05:34:33;7.80;;;7.10;;
18360;SDS011;9308;48.550;9.108;2022-11-15T05:37:00;6.70;;;6.20;;
18360;SDS011;9308;48.550;9.108;2022-11-15T05:39:25;6.37;;;5.83;;
18360;SDS011;9308;48.550;9.108;2022-11-15T05:41:54;7.80;;;6.60;;
18360;SDS011;9308;48.550;9.108;2022-11-15T05:44:27;6.93;;;6.43;;
18360;SDS011;9308;48.550;9.108;2022-11-15T05:46:52;6.50;;;5.90;;
18360;SDS011;9308;48.550;9.108;2022-11-15T05:49:20;6.60;;;6.00;;
18360;SDS011;9308;48.550;9.108;2022-11-15T05:51:48;5.80;;;5.30;;
18360;SDS011;9308;48.550;9.108;2022-11-15T05:54:14;6.03;;;5.43;;
18360;SDS011;9308;48.550;9.108;2022-11-15T05:56:41;5.97;;;5.57;;
18360;SDS011;9308;48.550;9.108;2022-11-15T05:59:07;6.57;;;5.97;;
18360;SDS011;9308;48.550;9.108;2022-11-15T06:01:34;7.10;;;6.40;;
18360;SDS011;9308;48.550;9.108;2022-11-15T06:03:59;7.30;;;6.67;;
18360;SDS011;9308;48.550;9.108;2022-11-15T06:06:26;7.57;;;6.00;;
18360;SDS011;9308;48.550;9.108;2022-11-15T06:08:52;6.20;;;5.60;;
18360;SDS011;9308;48.550;9.108;2022-11-15T06:11:18;5.73;;;5.20;;
18360;SDS011;9308;48.550;9.108;2022-11-15T06:13:43;5.90;;;5.50;;
18360;SDS011;9308;48.550;9.108;2022-11-15T06:16:09;5.33;;;4.90;;
18360;SDS011;9308;48.550;9.108;2022-11-15T06:18:34;6.17;;;5.57;;
18360;SDS011;9308;48.550;9.108;2022-11-15T06:21:01;6.13;;;5.17;;
18360;SDS011;9308;48.550;9.108;2022-11-15T06:23:27;5.70;;;5.30;;
18360;SDS011;9308;48.550;9.108;2022-11-15T06:25:53;6.90;;;6.27;;
18360;SDS011;9308;48.550;9.108;2022-11-15T06:28:18;7.50;;;6.80;;
18360;SDS011;9308;48.550;9.108;2022-11-15T06:30:43;6.90;;;6.30;;
18360;SDS011;9308;48.550;9.108;2022-11-15T06:33:09;5.70;;;5.30;;
18360;SDS011;9308;48.550;9.108;2022-11-15T06:35:35;5.67;;;5.10;;
18360;SDS011;9308;48.550;9.108;2022-11-15T06:38:01;7.10;;;6.50;;
18360;SDS011;9308;48.550;9.108;2022-11-15T06:40:29;9.37;;;8.47;;
18360;SDS011;9308;48.550;9.108;2022-11-15T06:42:58;13.00;;;11.77;;
18360;SDS011;9308;48.550;9.108;2022-11-15T06:45:24;7.37;;;6.77;;
18360;SDS011;9308;48.550;9.108;2022-11-15T06:47:50;8.80;;;7.93;;
18360;SDS011;9308;48.550;9.108;2022-11-15T06:50:15;10.30;;;9.27;;
18360;SDS011;9308;48.550;9.108;2022-11-15T06:52:41;12.47;;;9.60;;
18360;SDS011;9308;48.550;9.108;2022-11-15T06:55:07;9.20;;;8.30;;
18360;SDS011;9308;48.550;9.108;2022-11-15T06:57:33;8.63;;;7.93;;
18360;SDS011;9308;48.550;9.108;2022-11-15T06:59:58;7.70;;;7.00;;
18360;SDS011;9308;48.550;9.108;2022-11-15T07:02:24;7.20;;;6.70;;
18360;SDS011;9308;48.550;9.108;2022-11-15T07:04:49;7.67;;;7.10;;
18360;SDS011;9308;48.550;9.108;2022-11-15T07:07:14;8.00;;;7.43;;
18360;SDS011;9308;48.550;9.108;2022-11-15T07:09:40;8.73;;;7.97;;
18360;SDS011;9308;48.550;9.108;2022-11-15T07:12:05;7.70;;;7.00;;
18360;SDS011;9308;48.550;9.108;2022-11-15T07:14:31;7.93;;;7.33;;
18360;SDS011;9308;48.550;9.108;2022-11-15T07:16:56;8.90;;;8.10;;
18360;SDS011;9308;48.550;9.108;2022-11-15T07:19:22;8.37;;;7.73;;
18360;SDS011;9308;48.550;9.108;2022-11-15T07:21:47;8.53;;;7.83;;
18360;SDS011;9308;48.550;9.108;2022-11-15T07:24:12;7.87;;;7.17;;
18360;SDS011;9308;48.550;9.108;2022-11-15T07:26:38;8.13;;;7.47;;
18360;SDS011;9308;48.550;9.108;2022-11-15T07:29:03;7.60;;;6.90;;
18360;SDS011;9308;48.550;9.108;2022-11-15T07:31:29;8.97;;;6.47;;
18360;SDS011;9308;48.550;9.108;2022-11-15T07:33:54;6.47;;;5.87;;
18360;SDS011;9308;48.550;9.108;2022-11-15T07:36:20;7.83;;;6.87;;
18360;SDS011;9308;48.550;9.108;2022-11-15T07:38:45;6.50;;;6.00;;
18360;SDS011;9308;48.550;9.108;2022-11-15T07:41:11;8.47;;;6.50;;
18360;SDS011;9308;48.550;9.108;2022-11-15T07:43:37;6.20;;;5.70;;
18360;SDS011;9308;48.550;9.108;2022-11-15T07:46:06;7.07;;;6.40;;
18360;SDS011;9308;48.550;9.108;2022-11-15T07:48:34;7.03;;;6.50;;
18360;SDS011;9308;48.550;9.108;2022-11-15T07:51:00;7.00;;;6.30;;
18360;SDS011;9308;48.550;9.108;2022-11-15T07:53:26;7.67;;;6.43;;
18360;SDS011;9308;48.550;9.108;2022-11-15T07:55:51;6.40;;;5.80;;
18360;SDS011;9308;48.550;9.108;2022-11-15T07:58:18;8.13;;;6.27;;
18360;SDS011;9308;48.550;9.108;2022-11-15T08:00:44;6.87;;;6.27;;
18360;SDS011;9308;48.550;9.108;2022-11-15T08:03:14;6.83;;;6.23;;
18360;SDS011;9308;48.550;9.108;2022-11-15T08:05:41;6.53;;;6.03;;
18360;SDS011;9308;48.550;9.108;2022-11-15T08:08:07;6.80;;;6.20;;
18360;SDS011;9308;48.550;9.108;2022-11-15T08:10:34;6.17;;;5.67;;
18360;SDS011;9308;48.550;9.108;2022-11-15T08:13:05;7.20;;;6.50;;
18360;SDS011;9308;48.550;9.108;2022-11-15T08:15:33;6.23;;;5.63;;
18360;SDS011;9308;48.550;9.108;2022-11-15T08:18:01;6.00;;;5.50;;
18360;SDS011;9308;48.550;9.108;2022-11-15T08:20:29;6.13;;;5.57;;
18360;SDS011;9308;48.550;9.108;2022-11-15T08:22:55;6.70;;;6.10;;
18360;SDS011;9308;48.550;9.108;2022-11-15T08:25:22;5.97;;;5.47;;
18360;SDS011;9308;48.550;9.108;2022-11-15T08:27:55;6.20;;;5.60;;
18360;SDS011;9308;48.550;9.108;2022-11-15T08:30:22;7.07;;;5.47;;
18360;SDS011;9308;48.550;9.108;2022-11-15T08:32:49;6.50;;;5.90;;
18360;SDS011;9308;48.550;9.108;2022-11-15T08:35:16;5.73;;;5.17;;
18360;SDS011;9308;48.550;9.108;2022-11-15T08:37:42;8.00;;;6.63;;
18360;SDS011;9308;48.550;9.108;2022-11-15T08:40:08;5.87;;;5.47;;
18360;SDS011;9308;48.550;9.108;2022-11-15T08:42:34;6.50;;;5.90;;
18360;SDS011;9308;48.550;9.108;2022-11-15T08:45:00;7.40;;;6.77;;
18360;SDS011;9308;48.550;9.108;2022-11-15T08:47:26;6.60;;;6.00;;
18360;SDS011;9308;48.550;9.108;2022-11-15T08:49:51;7.07;;;6.37;;
18360;SDS011;9308;48.550;9.108;2022-11-15T08:52:17;7.33;;;6.73;;
18360;SDS011;9308;48.550;9.108;2022-11-15T08:54:43;7.10;;;6.40;;
18360;SDS011;9308;48.550;9.108;2022-11-15T08:57:08;7.03;;;6.43;;
18360;SDS011;9308;48.550;9.108;2022-11-15T08:59:34;7.90;;;6.33;;
18360;SDS011;9308;48.550;9.108;2022-11-15T09:02:01;7.30;;;6.70;;
18360;SDS011;9308;48.550;9.108;2022-11-15T09:04:26;7.17;;;6.57;;
18360;SDS011;9308;48.550;9.108;2022-11-15T09:06:52;8.60;;;8.00;;
18360;SDS011;9308;48.550;9.108;2022-11-15T09:09:18;7.37;;;6.83;;
18360;SDS011;9308;48.550;9.108;2022-11-15T09:11:43;7.93;;;7.33;;
18360;SDS011;9308;48.550;9.108;2022-11-15T09:14:10;6.90;;;6.30;;
18360;SDS011;9308;48.550;9.108;2022-11-15T09:16:37;7.30;;;6.60;;
18360;SDS011;9308;48.550;9.108;2022-11-15T09:19:03;7.80;;;7.23;;
18360;SDS011;9308;48.550;9.108;2022-11-15T09:21:29;6.90;;;6.00;;
18360;SDS011;9308;48.550;9.108;2022-11-15T09:23:55;7.13;;;6.53;;
18360;SDS011;9308;48.550;9.108;2022-11-15T09:26:21;7.53;;;6.83;;
18360;SDS011;9308;48.550;9.108;2022-11-15T09:28:46;8.10;;;7.50;;
18360;SDS011;9308;48.550;9.108;2022-11-15T09:31:12;9.57;;;8.57;;
18360;SDS011;9308;48.550;9.108;2022-11-15T09:33:38;8.13;;;7.30;;
18360;SDS011;9308;48.550;9.108;2022-11-15T09:36:05;7.67;;;7.00;;
18360;SDS011;9308;48.550;9.108;2022-11-15T09:38:32;8.17;;;7.47;;
18360;SDS011;9308;48.550;9.108;2022-11-15T09:49:21;6.80;;;6.13;;
18360;SDS011;9308;48.550;9.108;2022-11-15T09:51:49;6.80;;;6.20;;
18360;SDS011;9308;48.550;9.108;2022-11-15T09:54:26;6.73;;;6.17;;
18360;SDS011;9308;48.550;9.108;2022-11-15T09:56:56;5.73;;;4.63;;
18360;SDS011;9308;48.550;9.108;2022-11-15T10:02:19;4.80;;;4.40;;
18360;SDS011;9308;48.550;9.108;2022-11-15T10:05:00;4.53;;;4.17;;
18360;SDS011;9308;48.550;9.108;2022-11-15T10:07:28;4.60;;;3.90;;
18360;SDS011;9308;48.550;9.108;2022-11-15T10:10:12;4.97;;;4.47;;
18360;SDS011;9308;48.550;9.108;2022-11-15T10:12:48;4.20;;;3.90;;
18360;SDS011;9308;48.550;9.108;2022-11-15T10:15:17;4.03;;;3.70;;
18360;SDS011;9308;48.550;9.108;2022-11-15T10:20:48;3.83;;;3.43;;
18360;SDS011;9308;48.550;9.108;2022-11-15T10:23:19;4.30;;;3.90;;
18360;SDS011;9308;48.550;9.108;2022-11-15T10:25:47;4.40;;;4.00;;
18360;SDS011;9308;48.550;9.108;2022-11-15T10:28:22;4.23;;;3.93;;
18360;SDS011;9308;48.550;9.108;2022-11-15T10:30:55;4.80;;;4.50;;
18360;SDS011;9308;48.550;9.108;2022-11-15T10:33:27;4.87;;;4.50;;
18360;SDS011;9308;48.550;9.108;2022-11-15T10:44:01;6.43;;;4.80;;
18360;SDS011;9308;48.550;9.108;2022-11-15T10:47:16;7.10;;;6.40;;
18360;SDS011;9308;48.550;9.108;2022-11-15T10:49:52;11.07;;;9.90;;
18360;SDS011;9308;48.550;9.108;2022-11-15T10:52:19;10.90;;;9.80;;
18360;SDS011;9308;48.550;9.108;2022-11-15T10:54:49;10.03;;;9.13;;
18360;SDS011;9308;48.550;9.108;2022-11-15T10:57:21;11.47;;;10.33;;
18360;SDS011;9308;48.550;9.108;2022-11-15T10:59:51;10.07;;;9.07;;
18360;SDS011;9308;48.550;9.108;2022-11-15T11:04:55;9.90;;;9.00;;
18360;SDS011;9308;48.550;9.108;2022-11-15T11:07:22;10.47;;;9.50;;
18360;SDS011;9308;48.550;9.108;2022-11-15T11:12:44;12.77;;;10.37;;
18360;SDS011;9308;48.550;9.108;2022-11-15T11:15:14;12.47;;;11.20;;
18360;SDS011;9308;48.550;9.108;2022-11-15T11:17:53;11.07;;;9.80;;
18360;SDS011;9308;48.550;9.108;2022-11-15T11:20:30;10.87;;;9.87;;
18360;SDS011;9308;48.550;9.108;2022-11-15T11:23:12;11.80;;;10.70;;
18360;SDS011;9308;48.550;9.108;2022-11-15T11:25:43;10.67;;;9.77;;
18360;SDS011;9308;48.550;9.108;2022-11-15T11:33:43;10.40;;;9.40;;
18360;SDS011;9308;48.550;9.108;2022-11-15T11:38:52;10.47;;;9.53;;
18360;SDS011;9308;48.550;9.108;2022-11-15T11:43:59;7.83;;;7.07;;
18360;SDS011;9308;48.550;9.108;2022-11-15T11:46:33;8.77;;;7.40;;
18360;SDS011;9308;48.550;9.108;2022-11-15T11:49:10;7.13;;;5.50;;
18360;SDS011;9308;48.550;9.108;2022-11-15T11:54:49;7.07;;;4.73;;
18360;SDS011;9308;48.550;9.108;2022-11-15T11:57:20;4.83;;;4.43;;
18360;SDS011;9308;48.550;9.108;2022-11-15T12:00:24;5.00;;;4.60;;
18360;SDS011;9308;48.550;9.108;2022-11-15T12:05:54;7.60;;;6.83;;
18360;SDS011;9308;48.550;9.108;2022-11-15T12:11:10;8.80;;;7.97;;
18360;SDS011;9308;48.550;9.108;2022-11-15T12:13:39;6.57;;;5.93;;
18360;SDS011;9308;48.550;9.108;2022-11-15T12:16:21;7.03;;;6.43;;
18360;SDS011;9308;48.550;9.108;2022-11-15T12:18:51;7.60;;;6.30;;
18360;SDS011;9308;48.550;9.108;2022-11-15T12:23:53;8.00;;;5.90;;
18360;SDS011;9308;48.550;9.108;2022-11-15T12:26:25;6.43;;;5.87;;
18360;SDS011;9308;48.550;9.108;2022-11-15T12:28:59;10.73;;;9.90;;
18360;SDS011;9308;48.550;9.108;2022-11-15T12:34:00;9.43;;;8.50;;
18360;SDS011;9308;48.550;9.108;2022-11-15T12:36:38;8.73;;;7.83;;
18360;SDS011;9308;48.550;9.108;2022-11-15T12:39:07;9.27;;;8.40;;
18360;SDS011;9308;48.550;9.108;2022-11-15T12:41:35;8.93;;;8.13;;
18360;SDS011;9308;48.550;9.108;2022-11-15T12:44:02;10.20;;;9.17;;
18360;SDS011;9308;48.550;9.108;2022-11-15T12:48:55;9.90;;;8.90;;
18360;SDS011;9308;48.550;9.108;2022-11-15T13:02:19;10.57;;;7.00;;
18360;SDS011;9308;48.550;9.108;2022-11-15T13:04:47;7.73;;;7.00;;
18360;SDS011;9308;48.550;9.108;2022-11-15T13:10:00;7.47;;;6.73;;
18360;SDS011;9308;48.550;9.108;2022-11-15T13:30:58;9.03;;;8.13;;
18360;SDS011;9308;48.550;9.108;2022-11-15T13:35:59;8.90;;;7.93;;
18360;SDS011;9308;48.550;9.108;2022-11-15T13:38:44;9.17;;;7.60;;
18360;SDS011;9308;48.550;9.108;2022-11-15T13:41:19;8.17;;;7.50;;
18360;SDS011;9308;48.550;9.108;2022-11-15T13:43:47;7.27;;;6.70;;
18360;SDS011;9308;48.550;9.108;2022-11-15T13:46:16;10.73;;;8.20;;
18360;SDS011;9308;48.550;9.108;2022-11-15T13:48:53;8.90;;;8.00;;
18360;SDS011;9308;48.550;9.108;2022-11-15T13:51:25;9.10;;;8.30;;
18360;SDS011;9308;48.550;9.108;2022-11-15T13:53:58;8.00;;;6.70;;
18360;SDS011;9308;48.550;9.108;2022-11-15T13:56:27;7.57;;;6.87;;
18360;SDS011;9308;48.550;9.108;2022-11-15T13:58:54;7.00;;;6.30;;
18360;SDS011;9308;48.550;9.108;2022-11-15T14:01:20;7.03;;;5.90;;
18360;SDS011;9308;48.550;9.108;2022-11-15T14:03:54;6.43;;;5.70;;
18360;SDS011;9308;48.550;9.108;2022-11-15T14:06:25;6.73;;;5.97;;
18360;SDS011;9308;48.550;9.108;2022-11-15T14:11:34;8.70;;;8.00;;
18360;SDS011;9308;48.550;9.108;2022-11-15T14:19:12;8.20;;;7.50;;
18360;SDS011;9308;48.550;9.108;2022-11-15T14:27:40;10.77;;;8.87;;
18360;SDS011;9308;48.550;9.108;2022-11-15T14:30:16;10.57;;;8.40;;
18360;SDS011;9308;48.550;9.108;2022-11-15T14:32:49;8.77;;;8.00;;
18360;SDS011;9308;48.550;9.108;2022-11-15T14:35:16;8.73;;;7.90;;
18360;SDS011;9308;48.550;9.108;2022-11-15T14:37:44;8.23;;;7.40;;
18360;SDS011;9308;48.550;9.108;2022-11-15T14:40:12;7.83;;;7.13;;
18360;SDS011;9308;48.550;9.108;2022-11-15T14:42:40;6.97;;;6.37;;
18360;SDS011;9308;48.550;9.108;2022-11-15T14:45:16;6.10;;;5.60;;
18360;SDS011;9308;48.550;9.108;2022-11-15T14:47:44;7.30;;;6.70;;
18360;SDS011;9308;48.550;9.108;2022-11-15T14:50:11;6.50;;;5.90;;
18360;SDS011;9308;48.550;9.108;2022-11-15T14:52:38;5.97;;;5.43;;
18360;SDS011;9308;48.550;9.108;2022-11-15T14:55:10;6.47;;;5.27;;
18360;SDS011;9308;48.550;9.108;2022-11-15T14:57:40;5.90;;;5.40;;
18360;SDS011;9308;48.550;9.108;2022-11-15T15:00:06;6.30;;;5.90;;
18360;SDS011;9308;48.550;9.108;2022-11-15T15:02:35;7.13;;;6.50;;
18360;SDS011;9308;48.550;9.108;2022-11-15T15:05:00;7.80;;;7.10;;
18360;SDS011;9308;48.550;9.108;2022-11-15T15:07:28;8.30;;;7.57;;
18360;SDS011;9308;48.550;9.108;2022-11-15T15:09:53;7.97;;;7.17;;
18360;SDS011;9308;48.550;9.108;2022-11-15T15:12:20;8.00;;;7.30;;
18360;SDS011;9308;48.550;9.108;2022-11-15T15:14:48;10.80;;;9.67;;
18360;SDS011;9308;48.550;9.108;2022-11-15T15:17:15;10.93;;;9.70;;
18360;SDS011;9308;48.550;9.108;2022-11-15T15:19:41;9.10;;;8.40;;
18360;SDS011;9308;48.550;9.108;2022-11-15T15:22:17;8.67;;;7.80;;
18360;SDS011;9308;48.550;9.108;2022-11-15T15:24:45;9.40;;;8.33;;
18360;SDS011;9308;48.550;9.108;2022-11-15T15:27:11;9.07;;;7.77;;
18360;SDS011;9308;48.550;9.108;2022-11-15T15:29:37;10.00;;;9.00;;
18360;SDS011;9308;48.550;9.108;2022-11-15T15:32:03;10.87;;;9.77;;
18360;SDS011;9308;48.550;9.108;2022-11-15T15:34:29;12.63;;;11.50;;
18360;SDS011;9308;48.550;9.108;2022-11-15T15:37:08;12.50;;;11.20;;
18360;SDS011;9308;48.550;9.108;2022-11-15T15:39:33;11.53;;;10.60;;
18360;SDS011;9308;48.550;9.108;2022-11-15T15:41:59;12.37;;;11.37;;
18360;SDS011;9308;48.550;9.108;2022-11-15T15:44:24;11.40;;;10.40;;
18360;SDS011;9308;48.550;9.108;2022-11-15T15:46:49;11.20;;;10.03;;
18360;SDS011;9308;48.550;9.108;2022-11-15T15:49:15;10.97;;;9.87;;
18360;SDS011;9308;48.550;9.108;2022-11-15T15:51:40;11.17;;;10.07;;
18360;SDS011;9308;48.550;9.108;2022-11-15T15:54:06;9.40;;;8.70;;
18360;SDS011;9308;48.550;9.108;2022-11-15T15:56:31;12.27;;;11.07;;
18360;SDS011;9308;48.550;9.108;2022-11-15T15:58:57;15.03;;;11.33;;
18360;SDS011;9308;48.550;9.108;2022-11-15T16:01:22;15.10;;;13.80;;
18360;SDS011;9308;48.550;9.108;2022-11-15T16:03:48;16.90;;;15.50;;
18360;SDS011;9308;48.550;9.108;2022-11-15T16:09:14;16.37;;;14.87;;
18360;SDS011;9308;48.550;9.108;2022-11-15T16:11:41;16.23;;;14.93;;
18360;SDS011;9308;48.550;9.108;2022-11-15T16:14:08;16.00;;;14.60;;
18360;SDS011;9308;48.550;9.108;2022-11-15T16:16:34;16.93;;;15.40;;
18360;SDS011;9308;48.550;9.108;2022-11-15T16:19:00;17.43;;;15.83;;
18360;SDS011;9308;48.550;9.108;2022-11-15T16:21:29;15.50;;;14.30;;
18360;SDS011;9308;48.550;9.108;2022-11-15T16:23:55;15.40;;;14.00;;
18360;SDS011;9308;48.550;9.108;2022-11-15T16:26:24;13.10;;;11.40;;
18360;SDS011;9308;48.550;9.108;2022-11-15T16:28:51;12.53;;;11.50;;
18360;SDS011;9308;48.550;9.108;2022-11-15T16:31:16;12.60;;;11.60;;
18360;SDS011;9308;48.550;9.108;2022-11-15T16:33:45;13.33;;;11.50;;
18360;SDS011;9308;48.550;9.108;2022-11-15T16:38:42;12.37;;;11.17;;
18360;SDS011;9308;48.550;9.108;2022-11-15T16:41:07;10.97;;;9.97;;
18360;SDS011;9308;48.550;9.108;2022-11-15T16:43:33;11.17;;;9.60;;
18360;SDS011;9308;48.550;9.108;2022-11-15T16:45:59;17.30;;;15.57;;
18360;SDS011;9308;48.550;9.108;2022-11-15T16:48:33;27.97;;;25.07;;
18360;SDS011;9308;48.550;9.108;2022-11-15T16:50:59;39.70;;;31.77;;
18360;SDS011;9308;48.550;9.108;2022-11-15T16:53:25;80.80;;;57.33;;
18360;SDS011;9308;48.550;9.108;2022-11-15T16:55:52;47.13;;;37.37;;
18360;SDS011;9308;48.550;9.108;2022-11-15T16:58:18;40.37;;;35.97;;
18360;SDS011;9308;48.550;9.108;2022-11-15T17:00:44;41.00;;;36.57;;
18360;SDS011;9308;48.550;9.108;2022-11-15T17:03:10;32.20;;;28.90;;
18360;SDS011;9308;48.550;9.108;2022-11-15T17:05:36;31.60;;;28.50;;
18360;SDS011;9308;48.550;9.108;2022-11-15T17:08:01;29.80;;;27.00;;
18360;SDS011;9308;48.550;9.108;2022-11-15T17:10:26;24.37;;;22.07;;
18360;SDS011;9308;48.550;9.108;2022-11-15T17:12:53;22.60;;;20.50;;
18360;SDS011;9308;48.550;9.108;2022-11-15T17:15:20;21.90;;;19.70;;